createdAt,value
2018-09-24T00:00:44.541Z,15.10
2018-09-24T00:03:14.286Z,15.10
2018-09-24T00:05:44.149Z,15.10
2018-09-24T00:08:13.805Z,15.10
2018-09-24T00:10:43.590Z,15.20
2018-09-24T00:13:13.325Z,15.20
2018-09-24T00:15:42.829Z,15.20
2018-09-24T00:18:12.700Z,15.20
2018-09-24T00:20:42.344Z,15.30
2018-09-24T00:23:11.851Z,15.30
2018-09-24T00:25:41.521Z,15.30
2018-09-24T00:28:12.252Z,15.40
2018-09-24T00:30:41.905Z,15.40
2018-09-24T00:33:11.586Z,15.40
2018-09-24T00:35:41.225Z,15.50
2018-09-24T00:38:11.049Z,15.50
2018-09-24T00:40:40.910Z,15.50
2018-09-24T00:43:10.577Z,15.60
2018-09-24T00:45:40.327Z,15.60
2018-09-24T00:48:09.873Z,15.60
2018-09-24T00:50:39.565Z,15.60
2018-09-24T00:53:09.252Z,15.70
2018-09-24T00:55:39.021Z,15.60
2018-09-24T00:58:08.777Z,15.60
2018-09-24T01:00:38.513Z,15.60
2018-09-24T01:03:08.298Z,15.60
2018-09-24T01:05:37.958Z,15.50
2018-09-24T01:08:07.746Z,15.30
2018-09-24T01:10:37.493Z,15.20
2018-09-24T01:13:07.302Z,15.00
2018-09-24T01:15:37.153Z,14.70
2018-09-24T01:18:06.700Z,14.50
2018-09-24T01:20:36.301Z,14.30
2018-09-24T01:23:06.076Z,14.00
2018-09-24T01:25:35.727Z,13.80
2018-09-24T01:28:05.707Z,13.70
2018-09-24T01:30:35.440Z,13.50
2018-09-24T01:33:05.017Z,13.30
2018-09-24T01:35:34.775Z,13.20
2018-09-24T01:38:04.495Z,13.10
2018-09-24T01:40:34.681Z,13.10
2018-09-24T01:43:04.399Z,13.00
2018-09-24T01:45:34.123Z,13.00
2018-09-24T01:48:03.976Z,13.00
2018-09-24T01:50:33.762Z,13.00
2018-09-24T01:53:06.295Z,12.90
2018-09-24T01:55:36.540Z,12.90
2018-09-24T01:58:06.255Z,12.90
2018-09-24T02:00:35.849Z,12.90
2018-09-24T02:03:05.524Z,12.80
2018-09-24T02:05:35.299Z,12.80
2018-09-24T02:08:05.052Z,12.80
2018-09-24T02:10:34.710Z,12.70
2018-09-24T02:13:04.685Z,12.70
2018-09-24T02:15:34.529Z,12.70
2018-09-24T02:18:04.312Z,12.70
2018-09-24T02:20:34.174Z,12.80
2018-09-24T02:23:03.941Z,12.80
2018-09-24T02:25:33.982Z,12.90
2018-09-24T02:28:04.913Z,12.90
2018-09-24T02:30:34.741Z,12.90
2018-09-24T02:33:08.324Z,12.90
2018-09-24T02:35:38.249Z,12.90
2018-09-24T02:38:07.920Z,12.90
2018-09-24T02:40:37.548Z,12.90
2018-09-24T02:43:07.342Z,12.90
2018-09-24T02:45:36.992Z,12.90
2018-09-24T02:48:06.647Z,12.90
2018-09-24T02:50:39.568Z,12.90
2018-09-24T02:53:10.084Z,12.80
2018-09-24T02:55:39.735Z,12.90
2018-09-24T02:58:13.950Z,12.90
2018-09-24T03:00:43.848Z,12.90
2018-09-24T03:03:13.849Z,12.80
2018-09-24T03:05:44.156Z,12.80
2018-09-24T03:08:14.689Z,12.80
2018-09-24T03:10:44.529Z,12.80
2018-09-24T03:13:17.107Z,12.80
2018-09-24T03:15:53.380Z,12.80
2018-09-24T03:18:26.815Z,12.80
2018-09-24T03:20:56.452Z,12.80
2018-09-24T03:23:26.148Z,12.80
2018-09-24T03:25:55.903Z,12.80
2018-09-24T03:28:25.668Z,12.80
2018-09-24T03:30:55.416Z,12.70
2018-09-24T03:33:25.000Z,12.70
2018-09-24T03:35:54.692Z,12.70
2018-09-24T03:38:24.361Z,12.60
2018-09-24T03:40:54.011Z,12.60
2018-09-24T03:43:23.573Z,12.50
2018-09-24T03:45:53.465Z,12.40
2018-09-24T03:48:23.091Z,12.30
2018-09-24T03:50:52.788Z,12.30
2018-09-24T03:53:22.562Z,12.20
2018-09-24T03:55:52.200Z,12.20
2018-09-24T03:58:21.896Z,12.20
2018-09-24T04:00:52.148Z,12.20
2018-09-24T04:03:22.017Z,12.20
2018-09-24T04:05:56.721Z,12.20
2018-09-24T04:08:31.341Z,12.20
2018-09-24T04:11:06.155Z,12.10
2018-09-24T04:13:40.949Z,12.10
2018-09-24T04:16:15.644Z,12.10
2018-09-24T04:18:50.256Z,12.00
2018-09-24T04:21:25.166Z,12.00
2018-09-24T04:23:59.980Z,12.00
2018-09-24T04:26:34.825Z,11.90
2018-09-24T04:29:09.590Z,12.00
2018-09-24T04:31:44.384Z,12.00
2018-09-24T04:34:19.140Z,12.00
2018-09-24T04:36:53.771Z,12.00
2018-09-24T04:39:28.725Z,12.10
2018-09-24T04:42:03.385Z,12.10
2018-09-24T04:44:38.329Z,12.10
2018-09-24T04:47:13.141Z,12.10
2018-09-24T04:49:47.768Z,12.10
2018-09-24T04:52:22.453Z,12.10
2018-09-24T04:54:57.401Z,12.10
2018-09-24T04:57:32.009Z,12.20
2018-09-24T05:00:06.673Z,12.20
2018-09-24T05:02:41.319Z,12.20
2018-09-24T05:05:16.019Z,12.20
2018-09-24T05:07:50.775Z,12.10
2018-09-24T05:10:25.512Z,12.10
2018-09-24T05:13:00.109Z,12.10
2018-09-24T05:15:34.620Z,12.10
2018-09-24T05:18:09.319Z,12.10
2018-09-24T05:20:43.938Z,12.20
2018-09-24T05:23:18.633Z,12.10
2018-09-24T05:25:53.383Z,12.20
2018-09-24T05:28:28.165Z,12.20
2018-09-24T05:31:02.784Z,12.20
2018-09-24T05:33:37.945Z,12.30
2018-09-24T05:36:12.455Z,12.30
2018-09-24T05:38:47.273Z,12.40
2018-09-24T05:41:22.186Z,12.50
2018-09-24T05:43:56.808Z,12.50
2018-09-24T05:46:31.612Z,12.60
2018-09-24T05:49:06.264Z,12.70
2018-09-24T05:51:40.881Z,12.60
2018-09-24T05:54:15.480Z,12.70
2018-09-24T05:56:50.252Z,12.70
2018-09-24T05:59:24.990Z,12.90
2018-09-24T06:01:59.676Z,12.90
2018-09-24T06:04:34.793Z,12.80
2018-09-24T06:07:09.489Z,12.80
2018-09-24T06:09:44.184Z,12.80
2018-09-24T06:12:18.819Z,12.80
2018-09-24T06:14:53.458Z,12.70
2018-09-24T06:17:28.049Z,12.80
2018-09-24T06:20:02.939Z,12.80
2018-09-24T06:22:37.619Z,12.90
2018-09-24T06:25:12.700Z,12.90
2018-09-24T06:27:47.633Z,12.90
2018-09-24T06:30:22.444Z,13.00
2018-09-24T06:32:57.396Z,13.10
2018-09-24T06:35:32.116Z,13.20
2018-09-24T06:38:06.837Z,13.30
2018-09-24T06:40:41.485Z,13.30
2018-09-24T06:43:19.372Z,13.30
2018-09-24T06:45:54.089Z,13.30
2018-09-24T06:48:28.781Z,13.30
2018-09-24T06:51:03.665Z,13.40
2018-09-24T06:53:38.459Z,13.40
2018-09-24T06:56:13.124Z,13.60
2018-09-24T06:58:47.977Z,13.80
2018-09-24T07:01:22.777Z,13.90
2018-09-24T07:03:57.629Z,13.90
2018-09-24T07:06:32.538Z,13.90
2018-09-24T07:09:07.676Z,13.80
2018-09-24T07:11:42.301Z,13.60
2018-09-24T07:14:16.796Z,13.60
2018-09-24T07:16:51.398Z,13.50
2018-09-24T07:19:26.103Z,13.50
2018-09-24T07:22:00.877Z,13.60
2018-09-24T07:24:35.513Z,13.60
2018-09-24T07:27:10.153Z,13.70
2018-09-24T07:29:45.109Z,13.70
2018-09-24T07:32:19.761Z,13.70
2018-09-24T07:34:54.404Z,13.80
2018-09-24T07:37:28.844Z,14.00
2018-09-24T07:40:03.457Z,14.20
2018-09-24T07:42:38.020Z,14.10
2018-09-24T07:45:12.920Z,14.00
2018-09-24T07:47:47.636Z,13.80
2018-09-24T07:50:22.476Z,13.70
2018-09-24T07:52:57.164Z,13.60
2018-09-24T07:55:31.899Z,13.50
2018-09-24T07:58:06.781Z,13.50
2018-09-24T08:00:41.304Z,13.40
2018-09-24T08:03:16.226Z,13.40
2018-09-24T08:05:50.933Z,13.40
2018-09-24T08:08:25.747Z,13.40
2018-09-24T08:11:00.539Z,13.40
2018-09-24T08:13:35.265Z,13.50
2018-09-24T08:16:10.145Z,13.60
2018-09-24T08:18:44.712Z,13.70
2018-09-24T08:21:19.553Z,13.80
2018-09-24T08:23:54.224Z,14.00
2018-09-24T08:26:28.813Z,14.20
2018-09-24T08:29:03.409Z,14.70
2018-09-24T08:31:38.154Z,15.10
2018-09-24T08:34:12.788Z,15.20
2018-09-24T08:36:47.797Z,15.90
2018-09-24T08:39:22.623Z,16.00
2018-09-24T08:41:57.280Z,15.90
2018-09-24T08:44:31.966Z,15.70
2018-09-24T08:47:06.602Z,15.50
2018-09-24T08:49:41.540Z,15.30
2018-09-24T08:52:16.208Z,15.00
2018-09-24T08:54:50.808Z,14.90
2018-09-24T08:57:25.468Z,14.70
2018-09-24T09:00:00.086Z,14.60
2018-09-24T09:02:34.832Z,14.40
2018-09-24T09:05:09.802Z,14.30
2018-09-24T09:07:44.635Z,14.20
2018-09-24T09:10:19.310Z,14.20
2018-09-24T09:12:54.045Z,14.20
2018-09-24T09:15:28.605Z,14.30
2018-09-24T09:18:03.172Z,14.20
2018-09-24T09:20:37.636Z,14.10
2018-09-24T09:23:12.269Z,14.10
2018-09-24T09:25:47.076Z,14.30
2018-09-24T09:28:21.669Z,14.10
2018-09-24T09:30:56.280Z,14.10
2018-09-24T09:33:31.008Z,14.20
2018-09-24T09:36:05.825Z,14.40
2018-09-24T09:38:40.666Z,14.50
2018-09-24T09:41:15.299Z,14.70
2018-09-24T09:43:50.301Z,14.90
2018-09-24T09:46:24.960Z,15.60
2018-09-24T09:48:59.620Z,16.20
2018-09-24T09:51:34.370Z,16.40
2018-09-24T09:54:09.220Z,16.60
2018-09-24T09:56:43.776Z,16.70
2018-09-24T09:59:18.697Z,16.70
2018-09-24T10:01:53.508Z,16.50
2018-09-24T10:04:28.383Z,16.30
2018-09-24T10:07:02.975Z,16.20
2018-09-24T10:09:37.605Z,16.10
2018-09-24T10:12:12.436Z,16.10
2018-09-24T10:14:47.118Z,16.10
2018-09-24T10:17:21.768Z,16.20
2018-09-24T10:19:56.576Z,16.20
2018-09-24T10:22:31.325Z,16.20
2018-09-24T10:25:06.165Z,16.20
2018-09-24T10:27:40.872Z,16.00
2018-09-24T10:30:15.589Z,15.70
2018-09-24T10:32:50.227Z,15.50
2018-09-24T10:35:24.748Z,15.20
2018-09-24T10:37:59.460Z,15.10
2018-09-24T10:40:34.204Z,14.90
2018-09-24T10:43:09.124Z,15.10
2018-09-24T10:45:43.958Z,15.30
2018-09-24T10:48:18.897Z,15.50
2018-09-24T10:50:53.704Z,15.80
2018-09-24T10:53:28.391Z,15.90
2018-09-24T10:56:03.013Z,15.90
2018-09-24T10:58:37.601Z,15.90
2018-09-24T11:01:12.293Z,15.90
2018-09-24T11:03:47.392Z,16.00
2018-09-24T11:06:22.407Z,16.10
2018-09-24T11:08:56.924Z,16.30
2018-09-24T11:11:31.742Z,16.50
2018-09-24T11:14:06.557Z,16.60
2018-09-24T11:16:41.436Z,16.70
2018-09-24T11:19:15.972Z,16.70
2018-09-24T11:21:50.605Z,16.80
2018-09-24T11:24:25.225Z,16.70
2018-09-24T11:26:59.864Z,16.60
2018-09-24T11:29:34.591Z,16.50
2018-09-24T11:32:09.250Z,16.40
2018-09-24T11:34:43.943Z,16.50
2018-09-24T11:37:18.488Z,16.50
2018-09-24T11:39:53.230Z,16.30
2018-09-24T11:42:27.997Z,16.20
2018-09-24T11:45:02.719Z,16.10
2018-09-24T11:47:37.422Z,15.90
2018-09-24T11:50:12.068Z,15.80
2018-09-24T11:52:46.582Z,15.60
2018-09-24T11:55:21.403Z,15.50
2018-09-24T11:57:56.439Z,15.50
2018-09-24T12:00:31.285Z,15.40
2018-09-24T12:03:05.949Z,15.50
2018-09-24T12:05:40.823Z,15.60
2018-09-24T12:08:15.584Z,15.60
2018-09-24T12:10:50.588Z,15.60
2018-09-24T12:13:25.323Z,15.60
2018-09-24T12:16:00.173Z,15.60
2018-09-24T12:18:34.973Z,15.50
2018-09-24T12:21:09.772Z,15.40
2018-09-24T12:23:44.402Z,15.50
2018-09-24T12:26:19.096Z,15.50
2018-09-24T12:28:53.720Z,15.50
2018-09-24T12:31:28.432Z,15.50
2018-09-24T12:34:03.072Z,15.50
2018-09-24T12:36:37.699Z,15.50
2018-09-24T12:39:13.443Z,15.40
2018-09-24T12:41:47.830Z,15.40
2018-09-24T12:44:22.475Z,15.40
2018-09-24T12:46:57.112Z,15.40
2018-09-24T12:49:31.753Z,15.40
2018-09-24T12:52:06.404Z,15.50
2018-09-24T12:54:41.036Z,15.50
2018-09-24T12:57:16.194Z,15.40
2018-09-24T12:59:50.964Z,15.40
2018-09-24T13:02:25.590Z,15.40
2018-09-24T13:05:00.205Z,15.50
2018-09-24T13:07:34.592Z,15.50
2018-09-24T13:10:09.442Z,15.60
2018-09-24T13:12:44.251Z,15.60
2018-09-24T13:15:19.009Z,15.60
2018-09-24T13:17:53.639Z,15.50
2018-09-24T13:20:28.508Z,15.50
2018-09-24T13:23:03.424Z,15.40
2018-09-24T13:25:38.784Z,15.30
2018-09-24T13:28:13.531Z,15.20
2018-09-24T13:30:48.276Z,15.10
2018-09-24T13:33:22.788Z,15.10
2018-09-24T13:35:57.720Z,15.10
2018-09-24T13:38:32.326Z,15.00
2018-09-24T13:41:06.999Z,14.90
2018-09-24T13:43:41.662Z,14.80
2018-09-24T13:46:16.300Z,14.70
2018-09-24T13:48:50.889Z,14.70
2018-09-24T13:51:25.508Z,14.60
2018-09-24T13:54:00.144Z,14.60
2018-09-24T13:56:34.767Z,14.70
2018-09-24T13:59:09.376Z,14.70
2018-09-24T14:01:44.000Z,14.90
2018-09-24T14:04:18.668Z,15.10
2018-09-24T14:06:53.261Z,15.30
2018-09-24T14:09:27.863Z,15.50
2018-09-24T14:12:02.768Z,15.60
2018-09-24T14:14:37.505Z,15.60
2018-09-24T14:17:12.057Z,15.60
2018-09-24T14:19:47.062Z,15.50
2018-09-24T14:22:21.585Z,15.40
2018-09-24T14:24:56.108Z,15.40
2018-09-24T14:27:30.636Z,15.30
2018-09-24T14:30:05.160Z,15.20
2018-09-24T14:32:39.560Z,15.10
2018-09-24T14:35:13.993Z,15.10
2018-09-24T14:37:48.561Z,15.10
2018-09-24T14:40:23.273Z,15.10
2018-09-24T14:42:58.021Z,15.00
2018-09-24T14:45:32.917Z,15.00
2018-09-24T14:48:07.677Z,14.90
2018-09-24T14:50:42.487Z,14.80
2018-09-24T14:53:17.317Z,14.70
2018-09-24T14:55:51.938Z,14.60
2018-09-24T14:58:26.629Z,14.50
2018-09-24T15:01:01.474Z,14.50
2018-09-24T15:03:36.509Z,14.50
2018-09-24T15:06:11.441Z,14.50
2018-09-24T15:08:46.236Z,14.50
2018-09-24T15:11:23.124Z,14.40
2018-09-24T15:13:57.904Z,14.30
2018-09-24T15:16:32.398Z,14.30
2018-09-24T15:19:07.056Z,14.20
2018-09-24T15:21:41.957Z,14.20
2018-09-24T15:24:16.620Z,14.30
2018-09-24T15:26:51.004Z,14.50
2018-09-24T15:29:25.372Z,14.50
2018-09-24T15:31:59.740Z,14.60
2018-09-24T15:34:34.677Z,14.60
2018-09-24T15:37:09.399Z,14.60
2018-09-24T15:39:44.137Z,14.40
2018-09-24T15:42:18.754Z,14.10
2018-09-24T15:44:53.533Z,13.90
2018-09-24T15:47:28.957Z,13.70
2018-09-24T15:50:03.557Z,13.50
2018-09-24T15:52:41.181Z,13.50
2018-09-24T15:55:15.726Z,13.40
2018-09-24T15:57:50.396Z,13.40
2018-09-24T16:00:25.429Z,13.40
2018-09-24T16:03:00.388Z,13.50
2018-09-24T16:05:35.000Z,13.50
2018-09-24T16:08:09.714Z,13.50
2018-09-24T16:10:44.353Z,13.50
2018-09-24T16:13:19.005Z,13.50
2018-09-24T16:15:53.643Z,13.50
2018-09-24T16:18:28.481Z,13.40
2018-09-24T16:21:02.837Z,13.30
2018-09-24T16:23:37.430Z,13.30
2018-09-24T16:26:12.505Z,13.20
2018-09-24T16:28:47.760Z,13.20
2018-09-24T16:31:22.657Z,13.10
2018-09-24T16:33:57.500Z,13.10
2018-09-24T16:36:32.545Z,13.10
2018-09-24T16:39:07.728Z,13.10
2018-09-24T16:41:42.675Z,13.00
2018-09-24T16:44:17.480Z,13.00
2018-09-24T16:46:52.600Z,13.00
2018-09-24T16:49:27.555Z,13.00
2018-09-24T16:52:02.742Z,13.00
2018-09-24T16:54:37.621Z,13.00
2018-09-24T16:57:12.674Z,13.00
2018-09-24T16:59:47.316Z,12.90
2018-09-24T17:02:22.712Z,12.80
2018-09-24T17:04:58.136Z,12.70
2018-09-24T17:07:33.743Z,12.70
2018-09-24T17:10:08.722Z,12.60
2018-09-24T17:12:43.868Z,12.60
2018-09-24T17:15:19.151Z,12.60
2018-09-24T17:17:54.168Z,12.60
2018-09-24T17:20:29.221Z,12.50
2018-09-24T17:23:03.905Z,12.50
2018-09-24T17:25:38.374Z,12.40
2018-09-24T17:28:12.750Z,12.40
2018-09-24T17:30:47.058Z,12.30
2018-09-24T17:33:21.353Z,12.40
2018-09-24T17:35:56.021Z,12.40
2018-09-24T17:38:30.386Z,12.40
2018-09-24T17:41:04.668Z,12.40
2018-09-24T17:43:38.968Z,12.30
2018-09-24T17:46:13.463Z,12.30
2018-09-24T17:48:47.701Z,12.30
2018-09-24T17:51:22.060Z,12.40
2018-09-24T17:53:56.432Z,12.40
2018-09-24T17:56:30.803Z,12.40
2018-09-24T17:59:05.224Z,12.40
2018-09-24T18:01:39.729Z,12.30
2018-09-24T18:04:14.100Z,12.40
2018-09-24T18:06:48.710Z,12.40
2018-09-24T18:09:23.005Z,12.40
2018-09-24T18:11:57.379Z,12.40
2018-09-24T18:14:31.640Z,12.40
2018-09-24T18:17:08.755Z,12.40
2018-09-24T18:19:45.392Z,12.40
2018-09-24T18:22:19.796Z,12.40
2018-09-24T18:24:54.181Z,12.40
2018-09-24T18:27:28.590Z,12.50
2018-09-24T18:30:02.968Z,12.50
2018-09-24T18:32:37.387Z,12.50
2018-09-24T18:35:12.356Z,12.40
2018-09-24T18:40:18.768Z,12.40
2018-09-24T18:42:53.207Z,12.40
2018-09-24T18:45:27.566Z,12.50
2018-09-24T18:48:02.145Z,12.50
2018-09-24T18:50:36.906Z,12.40
2018-09-24T18:53:11.592Z,12.40
2018-09-24T18:55:45.884Z,12.40
2018-09-24T18:58:20.308Z,12.40
2018-09-24T19:00:54.775Z,12.40
2018-09-24T19:03:29.112Z,12.30
2018-09-24T19:06:03.408Z,12.40
2018-09-24T19:08:37.820Z,12.40
2018-09-24T19:11:12.163Z,12.30
2018-09-24T19:13:46.556Z,12.30
2018-09-24T19:16:20.960Z,12.40
2018-09-24T19:18:55.336Z,12.40
2018-09-24T19:21:29.632Z,12.40
2018-09-24T19:24:04.016Z,12.40
2018-09-24T19:26:38.404Z,12.40
2018-09-24T19:29:12.826Z,12.40
2018-09-24T19:31:47.179Z,12.40
2018-09-24T19:34:21.565Z,12.30
2018-09-24T19:36:55.986Z,12.30
2018-09-24T19:39:30.403Z,12.30
2018-09-24T19:42:04.709Z,12.30
2018-09-24T19:44:39.125Z,12.30
2018-09-24T19:47:13.688Z,12.30
2018-09-24T19:49:48.308Z,12.20
2018-09-24T19:52:23.669Z,12.20
2018-09-24T19:54:58.216Z,12.20
2018-09-24T19:57:32.517Z,12.30
2018-09-24T20:00:06.904Z,12.30
2018-09-24T20:02:41.603Z,12.30
2018-09-24T20:05:16.163Z,12.30
2018-09-24T20:07:50.585Z,12.30
2018-09-24T20:10:25.636Z,12.30
2018-09-24T20:13:00.112Z,12.20
2018-09-24T20:15:34.504Z,12.20
2018-09-24T20:18:09.248Z,12.30
2018-09-24T20:20:44.008Z,12.30
2018-09-24T20:23:18.473Z,12.30
2018-09-24T20:25:53.095Z,12.20
2018-09-24T20:28:27.492Z,12.20
2018-09-24T20:31:02.101Z,12.10
2018-09-24T20:33:37.556Z,12.10
2018-09-24T20:36:11.936Z,12.10
2018-09-24T20:38:46.829Z,12.10
2018-09-24T20:41:21.669Z,12.10
2018-09-24T20:43:56.028Z,12.10
2018-09-24T20:46:30.753Z,12.10
2018-09-24T20:49:05.444Z,12.00
2018-09-24T20:51:40.312Z,12.00
2018-09-24T20:54:15.150Z,12.00
2018-09-24T20:56:49.692Z,12.00
2018-09-24T20:59:24.531Z,12.00
2018-09-24T21:01:59.172Z,12.00
2018-09-24T21:04:33.793Z,12.00
2018-09-24T21:07:08.274Z,12.00
2018-09-24T21:09:43.006Z,12.00
2018-09-24T21:12:17.725Z,12.00
2018-09-24T21:14:52.526Z,12.00
2018-09-24T21:17:27.224Z,12.00
2018-09-24T21:20:01.968Z,12.00
2018-09-24T21:22:36.589Z,11.90
2018-09-24T21:25:11.282Z,11.90
2018-09-24T21:27:45.943Z,11.90
2018-09-24T21:30:20.618Z,11.90
2018-09-24T21:32:55.171Z,11.90
2018-09-24T21:35:30.174Z,11.90
2018-09-24T21:38:05.040Z,12.00
2018-09-24T21:40:39.648Z,12.00
2018-09-24T21:43:14.301Z,12.00
2018-09-24T21:45:49.005Z,11.90
2018-09-24T21:48:23.647Z,12.00
2018-09-24T21:50:58.641Z,12.00
2018-09-24T21:53:33.674Z,12.00
2018-09-24T21:56:08.609Z,11.90
2018-09-24T21:58:43.365Z,11.90
2018-09-24T22:01:18.062Z,11.80
2018-09-24T22:03:52.930Z,11.80
2018-09-24T22:06:27.568Z,11.90
2018-09-24T22:09:02.433Z,11.90
2018-09-24T22:11:37.076Z,11.90
2018-09-24T22:14:12.111Z,11.80
2018-09-24T22:16:46.912Z,11.90
2018-09-24T22:19:21.532Z,11.80
2018-09-24T22:21:56.244Z,11.80
2018-09-24T22:24:31.127Z,11.90
2018-09-24T22:27:05.824Z,11.90
2018-09-24T22:29:40.460Z,11.90
2018-09-24T22:32:15.388Z,11.90
2018-09-24T22:34:50.442Z,11.90
2018-09-24T22:37:25.192Z,11.80
2018-09-24T22:39:59.832Z,11.80
2018-09-24T22:42:34.504Z,11.80
2018-09-24T22:45:09.395Z,11.80
2018-09-24T22:47:44.211Z,11.80
2018-09-24T22:50:18.883Z,11.70
2018-09-24T22:52:53.620Z,11.70
2018-09-24T22:55:28.569Z,11.60
2018-09-24T22:58:03.229Z,11.60
2018-09-24T23:00:38.097Z,11.60
2018-09-24T23:03:12.889Z,11.60
2018-09-24T23:05:47.474Z,11.70
2018-09-24T23:08:22.098Z,11.80
2018-09-24T23:10:56.860Z,11.80
2018-09-24T23:13:31.327Z,11.80
2018-09-24T23:16:05.765Z,11.80
2018-09-24T23:18:40.485Z,11.80
2018-09-24T23:21:15.430Z,11.80
2018-09-24T23:23:50.116Z,11.80
2018-09-24T23:26:24.987Z,11.80
2018-09-24T23:28:59.797Z,11.70
2018-09-24T23:31:34.653Z,11.70
2018-09-24T23:34:09.379Z,11.70
2018-09-24T23:36:44.036Z,11.70
2018-09-24T23:39:18.740Z,11.70
2018-09-24T23:41:53.256Z,11.70
2018-09-24T23:44:28.053Z,11.60
2018-09-24T23:47:02.778Z,11.60
2018-09-24T23:49:37.632Z,11.50
2018-09-24T23:52:12.678Z,11.50
2018-09-24T23:54:47.368Z,11.60
2018-09-24T23:57:22.117Z,11.60
2018-09-24T23:59:57.302Z,11.60
